TimeEDT,TemperatureF,Dew PointF,Humidity,Sea Level PressureIn,VisibilityMPH,Wind Direction,Wind SpeedMPH,Gust SpeedMPH,PrecipitationIn,Events,Conditions,WindDirDegrees,DateUTC
12:54 AM,66.0,64.0,93,30.16,10.0,Calm,Calm,-,N/A,,Mostly Cloudy,0,2009-09-07 04:54:00
1:54 AM,64.9,64.0,97,30.16,9.0,Calm,Calm,-,N/A,,Mostly Cloudy,0,2009-09-07 05:54:00
2:54 AM,64.0,64.0,100,30.15,5.0,South,3.5,-,N/A,,Overcast,170,2009-09-07 06:54:00
3:54 AM,64.9,63.0,93,30.15,8.0,Calm,Calm,-,N/A,,Overcast,0,2009-09-07 07:54:00
4:54 AM,64.0,63.0,96,30.14,8.0,Calm,Calm,-,N/A,,Mostly Cloudy,0,2009-09-07 08:54:00
5:54 AM,63.0,62.1,97,30.14,8.0,Calm,Calm,-,N/A,,Partly Cloudy,0,2009-09-07 09:54:00
6:54 AM,63.0,62.1,97,30.14,6.0,Calm,Calm,-,N/A,,Scattered Clouds,0,2009-09-07 10:54:00
7:54 AM,63.0,62.1,97,30.14,5.0,Calm,Calm,-,N/A,,Partly Cloudy,0,2009-09-07 11:54:00
8:54 AM,64.0,62.1,93,30.15,7.0,Calm,Calm,-,N/A,,Overcast,0,2009-09-07 12:54:00
9:54 AM,66.9,61.0,81,30.15,10.0,Calm,Calm,-,N/A,,Scattered Clouds,0,2009-09-07 13:54:00
10:54 AM,69.1,61.0,75,30.14,10.0,Calm,Calm,-,0.00,,Clear,0,2009-09-07 14:54:00
11:54 AM,72.0,57.9,61,30.13,10.0,Calm,Calm,-,N/A,,Clear,0,2009-09-07 15:54:00
12:54 PM,73.9,57.9,57,30.10,10.0,East,4.6,-,N/A,,Clear,100,2009-09-07 16:54:00
1:54 PM,75.9,59.0,56,30.07,10.0,Calm,Calm,-,N/A,,Clear,0,2009-09-07 17:54:00
2:54 PM,77.0,60.1,56,30.06,10.0,ESE,4.6,-,N/A,,Mostly Cloudy,120,2009-09-07 18:54:00
3:54 PM,78.1,60.1,54,30.03,10.0,Calm,Calm,-,N/A,,Mostly Cloudy,0,2009-09-07 19:54:00
4:47 PM,66.2,62.6,88,30.11,1.8,NNW,11.5,-,0.09,Rain,Heavy Rain,330,2009-09-07 20:47:00
4:54 PM,66.0,63.0,90,30.06,1.5,Calm,Calm,-,0.18,Rain,Heavy Rain,0,2009-09-07 20:54:00
5:01 PM,66.2,62.6,88,30.11,3.0,North,4.6,-,0.02,Rain,Rain,350,2009-09-07 21:01:00
5:22 PM,69.8,64.4,83,30.11,10.0,NNW,4.6,-,0.02,,Mostly Cloudy,330,2009-09-07 21:22:00
5:54 PM,69.1,64.9,87,30.06,9.0,Calm,Calm,-,0.02,,Scattered Clouds,0,2009-09-07 21:54:00
6:54 PM,68.0,64.0,87,30.05,10.0,South,4.6,-,N/A,,Clear,180,2009-09-07 22:54:00
7:54 PM,66.9,63.0,87,30.04,10.0,Calm,Calm,-,N/A,,Mostly Cloudy,0,2009-09-07 23:54:00
8:54 PM,64.9,63.0,93,30.05,10.0,Calm,Calm,-,N/A,,Clear,0,2009-09-08 00:54:00
9:46 PM,64.4,62.6,94,30.11,5.0,Calm,Calm,-,N/A,,Scattered Clouds,0,2009-09-08 01:46:00
9:54 PM,63.0,63.0,100,30.06,4.0,Calm,Calm,-,N/A,,Scattered Clouds,0,2009-09-08 01:54:00
10:54 PM,62.1,62.1,100,30.05,4.0,Calm,Calm,-,N/A,,Partly Cloudy,0,2009-09-08 02:54:00
11:00 PM,62.6,60.8,94,30.11,1.8,Calm,Calm,-,N/A,,Clear,0,2009-09-08 03:00:00
11:03 PM,60.8,60.8,100,30.11,0.8,Calm,Calm,-,N/A,,Clear,0,2009-09-08 03:03:00
11:06 PM,60.8,60.8,100,30.11,0.2,Calm,Calm,-,N/A,Fog,Fog,0,2009-09-08 03:06:00
11:35 PM,60.8,60.8,100,30.11,0.5,Calm,Calm,-,N/A,Fog,Fog,0,2009-09-08 03:35:00
11:54 PM,62.1,62.1,100,30.05,0.8,Calm,Calm,-,N/A,,Overcast,0,2009-09-08 03:54:00